Aeroporto :
LOGIN :

Iscrizione | Disclaimer

   EN    FR    IT 

 










Sommario :    VFR   VFR Marginale   IFR   IFR Intensivo   IFR Molto Intensivo
Visibilità : 
Base nubi : 
>= 8 km
>= 3000ft
5 / 8 km
1000 / 3000 ft
1500m / 5 km
500 / 1000 ft
800 / 1500m
200 / 500 ft
< 800m
< 200 ft
Simboli :   Temporali  Nebbia  Neve Forte  Precipitazioni Forti  Vento > 20 kt
SIGMETs :   Varie  Temporali  Ghiacco  Turbolenza  Onda orograficha  Ceneri Vulcaniche






- Altitudine del aeroporto : 23 ft
- Codice IATA : XFW


EDHI - Hamburg Finkenwerder

ULTIMO METAR :
  • 231650Z 25009KT CAVOK 20/11 Q1015

METARs OBSOLETI :
  • 231620Z 25011KT CAVOK 20/11 Q1015
  • 231550Z 27010KT 240V300 CAVOK 20/11 Q1014
  • 231520Z 27008KT 9999 SCT043 21/12 Q1014
  • 231450Z 27011KT 240V300 9999 SCT040 20/11 Q1014
  • 231420Z 26011KT 9999 SCT045 20/12 Q1014
  • 231350Z 27010KT 250V310 9999 SCT047 21/11 Q1014
  • 231320Z 26009KT 230V300 9999 SCT046 21/10 Q1014
  • 231250Z 24011KT 220V280 9999 SCT044 21/11 Q1014

TAF TAF EDHI
Valido dal 23 a 18 ore il 23 a 21 ore UTC


231700Z 2318/2321 25009KT CAVOK
BECMG 2319/2321 VRB02KT



MetMap, La meteo Aeronautica in un colpo d'occhio ! - Copyright ORBIFLY Dicembre 2007 - Disclaimer

ORBIFLY MET'MAP TEAM :

Programmazione e sviluppo : Alexandra Zaïnal
Concezione : Baudouin d'Aumeries
Supporto tecnico e logistico : Manuel Goepfert
Aiuto : Marc-Olivier Méhu
Aiuto per la traduzione : Arnaldo La Scala




FONTI E CREDITI :

   NOAA